Aérodrome :
LOGIN :

S'inscrire | Disclaimer

   EN    FR    IT 

 










Légende :    VFR   VFR Marginal   IFR   IFR Intensif   IFR Très Intensif
Visi : 
Plafond : 
>= 8 km
>= 3000ft
5 à 8 km
1000 à 3000 ft
1500m à 5 km
500 à 1000 ft
800 à 1500m
200 à 500 ft
< 800m
< 200 ft
Symboles :   Orages  Brouillard  Fortes neiges  Fortes précipitations  Vent > 20 kt
SIGMETs :   Divers  Orages  Givrage  Turbulence  Onde Orograph.  Cendres Volcan.






- Altitude de l'aérodrome : 16 ft
- Code IATA : SDR


LEXJ - Santander Cantabria

DERNIER METAR :
  • 131500Z 09008KT 040V140 9999 FEW034 BKN042 21/13 Q1013

METARs EXPIRÉS :
  • 131430Z 10009KT 060V140 9999 FEW034 BKN042 21/14 Q1013
  • 131400Z 10008KT 060V130 9999 FEW032 BKN042 21/13 Q1013
  • 131330Z VRB06KT 9999 SCT032 BKN043 20/14 Q1014
  • 131300Z 05008G19KT 330V140 9999 SCT036 BKN043 20/14 Q1014
  • 131230Z 05009KT 330V130 9999 SCT036 20/14 Q1014
  • 131200Z 05010G20KT 330V120 9999 FEW038 21/14 Q1014
  • 131130Z VRB09G21KT 9999 FEW040 21/14 Q1014
  • 131100Z 06006KT 350V130 9999 FEW040 21/13 Q1014
  • 131030Z 08007KT 020V150 9999 FEW030 22/12 Q1014

TAF TAF LEXJ
Valide du 13 à 15h jusqu'au 14 à 15h UTC


131400Z 1315/1415 06009KT 9999 FEW035 TX25/1412Z TN16/1405Z
PROB40
TEMPO 1405/1409 22010KT
BECMG 1409/1411 29010KT



MET'MAP, la Météo Aéronautique d'un coup d'oeil ! - Copyright ORBIFLY Décembre 2007 - Disclaimer

ORBIFLY MET'MAP TEAM :

Programmation & Développement : Alexandra Zaïnal
Sur une idée originale de : Baudouin d'Aumeries
Soutien technique & logistique : Manuel Goepfert
Assistance : Marc-Olivier Méhu




SOURCES & CREDITS :

   NOAA